createdAt,value
2023-02-03T00:02:00.988Z,71.79
2023-02-03T00:04:28.330Z,71.84
2023-02-03T00:06:56.444Z,71.71
2023-02-03T00:09:23.730Z,71.71
2023-02-03T00:11:50.945Z,71.60
2023-02-03T00:14:18.155Z,71.50
2023-02-03T00:16:45.345Z,71.67
2023-02-03T00:19:12.642Z,71.70
2023-02-03T00:21:39.839Z,71.69
2023-02-03T00:24:07.073Z,71.81
2023-02-03T00:26:34.509Z,71.58
2023-02-03T00:29:02.063Z,71.48
2023-02-03T00:31:29.284Z,71.57
2023-02-03T00:33:57.953Z,71.48
2023-02-03T00:36:26.206Z,71.65
2023-02-03T00:38:54.242Z,71.45
2023-02-03T00:41:22.062Z,71.10
2023-02-03T00:43:50.858Z,71.33
2023-02-03T00:46:19.860Z,71.27
2023-02-03T00:48:47.409Z,71.30
2023-02-03T00:51:14.711Z,71.26
2023-02-03T00:53:41.913Z,71.46
2023-02-03T00:56:12.982Z,71.65
2023-02-03T00:58:40.828Z,71.48
2023-02-03T01:01:08.411Z,71.50
2023-02-03T01:03:36.247Z,71.47
2023-02-03T01:06:15.211Z,71.25
2023-02-03T01:08:42.868Z,71.26
2023-02-03T01:11:12.700Z,71.36
2023-02-03T01:13:40.215Z,71.37
2023-02-03T01:16:10.075Z,71.38
2023-02-03T01:18:38.263Z,71.25
2023-02-03T01:21:07.504Z,71.30
2023-02-03T01:23:36.282Z,71.19
2023-02-03T01:26:18.101Z,71.19
2023-02-03T01:28:50.686Z,71.36
2023-02-03T01:31:21.387Z,71.23
2023-02-03T01:33:48.905Z,71.20
2023-02-03T01:36:17.265Z,71.17
2023-02-03T01:38:46.233Z,71.22
2023-02-03T01:41:17.758Z,71.24
2023-02-03T01:43:50.152Z,71.10
2023-02-03T01:46:29.878Z,71.29
2023-02-03T01:49:08.415Z,71.30
2023-02-03T01:51:38.586Z,71.30
2023-02-03T01:54:09.221Z,71.29
2023-02-03T01:56:41.038Z,71.25
2023-02-03T01:59:08.690Z,71.27
2023-02-03T02:01:37.450Z,71.31
2023-02-03T02:04:06.521Z,71.31
2023-02-03T02:06:34.421Z,71.15
2023-02-03T02:09:02.171Z,71.18
2023-02-03T02:11:29.489Z,71.09
2023-02-03T02:14:00.888Z,71.09
2023-02-03T02:16:44.878Z,71.28
2023-02-03T02:19:19.074Z,71.23
2023-02-03T02:22:06.577Z,71.18
2023-02-03T02:25:01.327Z,71.15
2023-02-03T02:27:51.210Z,71.24
2023-02-03T02:30:47.126Z,71.20
2023-02-03T02:33:23.787Z,71.10
2023-02-03T02:36:09.313Z,71.18
2023-02-03T02:39:02.451Z,71.09
2023-02-03T02:41:38.355Z,70.97
2023-02-03T02:44:35.202Z,71.04
2023-02-03T02:47:10.135Z,71.02
2023-02-03T02:49:48.702Z,71.00
2023-02-03T02:52:18.519Z,71.18
2023-02-03T02:54:51.613Z,71.09
2023-02-03T02:57:22.622Z,71.04
2023-02-03T02:59:49.925Z,71.10
2023-02-03T03:02:18.419Z,71.04
2023-02-03T03:04:49.623Z,71.13
2023-02-03T03:07:23.480Z,71.11
2023-02-03T03:10:11.226Z,71.14
2023-02-03T03:12:47.176Z,71.23
2023-02-03T03:15:23.238Z,71.30
2023-02-03T03:17:59.474Z,71.20
2023-02-03T03:20:28.340Z,71.33
2023-02-03T03:23:08.034Z,71.25
2023-02-03T03:25:43.840Z,71.27
2023-02-03T03:28:17.156Z,71.31
2023-02-03T03:30:44.715Z,71.39
2023-02-03T03:33:12.151Z,71.29
2023-02-03T03:35:52.539Z,71.24
2023-02-03T03:38:25.386Z,71.16
2023-02-03T03:41:01.866Z,71.18
2023-02-03T03:43:34.315Z,71.07
2023-02-03T03:46:13.577Z,71.03
2023-02-03T03:48:55.969Z,71.27
2023-02-03T03:51:27.238Z,71.35
2023-02-03T03:53:58.942Z,71.21
2023-02-03T03:56:34.558Z,71.29
2023-02-03T03:59:02.998Z,71.18
2023-02-03T04:01:32.622Z,71.25
2023-02-03T04:04:06.152Z,71.16
2023-02-03T04:06:33.360Z,71.08
2023-02-03T04:09:02.310Z,71.13
2023-02-03T04:11:48.406Z,71.16
2023-02-03T04:14:15.465Z,71.10
2023-02-03T04:16:42.690Z,71.15
2023-02-03T04:19:09.895Z,71.16
2023-02-03T04:21:37.108Z,71.14
2023-02-03T04:24:04.613Z,71.08
2023-02-03T04:26:31.804Z,71.07
2023-02-03T04:28:59.015Z,71.04
2023-02-03T04:31:26.390Z,71.15
2023-02-03T04:33:53.770Z,71.18
2023-02-03T04:36:21.257Z,71.24
2023-02-03T04:38:51.636Z,71.25
2023-02-03T04:41:19.036Z,71.19
2023-02-03T04:43:46.213Z,71.17
2023-02-03T04:46:13.413Z,71.13
2023-02-03T04:48:40.895Z,71.15
2023-02-03T04:51:09.428Z,71.20
2023-02-03T04:53:37.077Z,71.24
2023-02-03T04:56:04.629Z,71.16
2023-02-03T04:58:32.014Z,71.15
2023-02-03T05:01:08.176Z,71.15
2023-02-03T05:03:36.126Z,71.13
2023-02-03T05:06:03.802Z,71.11
2023-02-03T05:08:31.215Z,71.04
2023-02-03T05:10:59.585Z,71.15
2023-02-03T05:13:28.534Z,71.06
2023-02-03T05:15:55.708Z,71.21
2023-02-03T05:18:22.935Z,71.16
2023-02-03T05:20:50.113Z,71.34
2023-02-03T05:23:17.311Z,71.37
2023-02-03T05:25:45.823Z,71.38
2023-02-03T05:28:13.322Z,71.28
2023-02-03T05:30:40.611Z,71.11
2023-02-03T05:33:07.784Z,71.07
2023-02-03T05:35:35.244Z,71.06
2023-02-03T05:38:03.344Z,71.22
2023-02-03T05:40:49.563Z,71.34
2023-02-03T05:43:17.022Z,71.56
2023-02-03T05:45:44.367Z,71.41
2023-02-03T05:48:11.866Z,71.28
2023-02-03T05:50:39.057Z,71.11
2023-02-03T05:53:09.028Z,71.10
2023-02-03T05:55:36.795Z,71.05
2023-02-03T05:58:04.896Z,71.11
2023-02-03T06:00:32.171Z,71.13
2023-02-03T06:03:02.658Z,71.18
2023-02-03T06:05:31.898Z,71.18
2023-02-03T06:07:59.439Z,71.04
2023-02-03T06:10:27.737Z,71.19
2023-02-03T06:12:54.988Z,71.24
2023-02-03T06:15:22.268Z,71.30
2023-02-03T06:17:49.677Z,71.25
2023-02-03T06:20:19.589Z,71.36
2023-02-03T06:22:46.946Z,71.16
2023-02-03T06:25:14.555Z,71.22
2023-02-03T06:27:42.439Z,71.26
2023-02-03T06:30:11.500Z,71.28
2023-02-03T06:32:38.754Z,71.20
2023-02-03T06:35:06.210Z,71.23
2023-02-03T06:37:33.689Z,71.27
2023-02-03T06:40:00.896Z,71.22
2023-02-03T06:42:28.095Z,71.16
2023-02-03T06:44:55.238Z,71.23
2023-02-03T06:47:22.347Z,71.13
2023-02-03T06:49:49.517Z,71.23
2023-02-03T06:52:16.745Z,71.34
2023-02-03T06:54:43.923Z,71.43
2023-02-03T06:57:11.301Z,71.44
2023-02-03T06:59:38.528Z,71.40
2023-02-03T07:02:05.705Z,71.29
2023-02-03T07:04:32.866Z,71.49
2023-02-03T07:06:59.957Z,71.44
2023-02-03T07:09:27.163Z,71.44
2023-02-03T07:11:54.310Z,71.45
2023-02-03T07:14:21.593Z,71.53
2023-02-03T07:16:48.761Z,71.43
2023-02-03T07:19:15.913Z,71.40
2023-02-03T07:21:43.128Z,71.34
2023-02-03T07:24:10.306Z,71.36
2023-02-03T07:26:37.670Z,71.42
2023-02-03T07:29:05.565Z,71.41
2023-02-03T07:31:33.245Z,71.48
2023-02-03T07:34:01.350Z,71.54
2023-02-03T07:36:29.091Z,71.39
2023-02-03T07:38:56.393Z,71.37
2023-02-03T07:41:23.595Z,71.41
2023-02-03T07:43:50.857Z,71.55
2023-02-03T07:46:18.128Z,71.42
2023-02-03T07:48:45.328Z,71.47
2023-02-03T07:51:12.481Z,71.44
2023-02-03T07:53:39.629Z,71.40
2023-02-03T07:56:06.937Z,71.41
2023-02-03T07:58:34.089Z,71.42
2023-02-03T08:01:01.205Z,71.31
2023-02-03T08:03:28.466Z,71.35
2023-02-03T08:05:55.742Z,71.48
2023-02-03T08:08:22.900Z,71.49
2023-02-03T08:10:50.029Z,71.34
2023-02-03T08:13:17.177Z,71.42
2023-02-03T08:15:44.369Z,71.51
2023-02-03T08:18:12.756Z,71.49
2023-02-03T08:20:40.234Z,71.40
2023-02-03T08:23:07.588Z,71.39
2023-02-03T08:25:34.744Z,71.33
2023-02-03T08:28:01.993Z,71.60
2023-02-03T08:30:29.623Z,71.58
2023-02-03T08:32:58.010Z,71.59
2023-02-03T08:35:25.647Z,71.67
2023-02-03T08:37:52.820Z,71.71
2023-02-03T08:40:20.095Z,71.67
2023-02-03T08:42:47.255Z,71.49
2023-02-03T08:45:14.524Z,71.59
2023-02-03T08:47:41.766Z,71.67
2023-02-03T08:50:09.734Z,71.57
2023-02-03T08:52:37.364Z,71.54
2023-02-03T08:55:05.042Z,71.56
2023-02-03T08:57:34.658Z,71.42
2023-02-03T09:00:01.935Z,71.56
2023-02-03T09:02:29.167Z,71.73
2023-02-03T09:04:56.591Z,71.61
2023-02-03T09:07:24.573Z,71.89
2023-02-03T09:09:51.919Z,71.84
2023-02-03T09:12:19.183Z,71.80
2023-02-03T09:14:46.483Z,71.74
2023-02-03T09:17:13.716Z,71.63
2023-02-03T09:19:40.887Z,71.60
2023-02-03T09:22:08.364Z,71.42
2023-02-03T09:24:35.620Z,71.45
2023-02-03T09:27:02.818Z,71.35
2023-02-03T09:29:30.025Z,71.50
2023-02-03T09:31:57.294Z,71.55
2023-02-03T09:34:24.708Z,71.40
2023-02-03T09:36:51.891Z,71.60
2023-02-03T09:39:19.043Z,71.38
2023-02-03T09:42:17.292Z,71.50
2023-02-03T09:45:05.583Z,71.52
2023-02-03T09:47:39.724Z,71.60
2023-02-03T09:50:19.894Z,71.54
2023-02-03T09:52:48.363Z,71.49
2023-02-03T09:55:42.381Z,71.53
2023-02-03T09:58:23.154Z,71.66
2023-02-03T10:01:01.325Z,71.53
2023-02-03T10:03:47.364Z,71.54
2023-02-03T10:06:19.870Z,71.55
2023-02-03T10:09:14.867Z,71.57
2023-02-03T10:11:49.891Z,71.68
2023-02-03T10:14:39.148Z,71.48
2023-02-03T10:17:34.304Z,71.43
2023-02-03T10:20:04.220Z,71.62
2023-02-03T10:22:38.333Z,71.41
2023-02-03T10:25:14.652Z,71.40
2023-02-03T10:27:44.097Z,71.50
2023-02-03T10:30:33.417Z,71.59
2023-02-03T10:33:10.609Z,71.60
2023-02-03T10:36:06.844Z,71.46
2023-02-03T10:38:50.204Z,71.61
2023-02-03T10:41:20.289Z,71.59
2023-02-03T10:43:52.303Z,71.62
2023-02-03T10:46:21.113Z,71.63
2023-02-03T10:48:49.498Z,71.60
2023-02-03T10:51:25.757Z,71.46
2023-02-03T10:53:53.809Z,71.49
2023-02-03T10:56:32.920Z,71.51
2023-02-03T10:59:01.040Z,71.47
2023-02-03T11:01:40.457Z,71.46
2023-02-03T11:04:25.060Z,71.67
2023-02-03T11:07:07.218Z,71.60
2023-02-03T11:09:42.537Z,71.56
2023-02-03T11:12:17.671Z,71.48
2023-02-03T11:14:50.201Z,71.59
2023-02-03T11:17:20.402Z,71.66
2023-02-03T11:19:49.264Z,71.67
2023-02-03T11:22:35.608Z,71.74
2023-02-03T11:25:15.818Z,71.62
2023-02-03T11:27:43.786Z,71.74
2023-02-03T11:30:24.843Z,71.74
2023-02-03T11:32:53.736Z,71.74
2023-02-03T11:35:32.033Z,71.72
2023-02-03T11:38:01.643Z,71.77
2023-02-03T11:40:30.473Z,71.73
2023-02-03T11:42:57.825Z,71.66
2023-02-03T11:45:37.776Z,71.75
2023-02-03T11:48:08.028Z,71.81
2023-02-03T11:50:49.841Z,71.63
2023-02-03T11:53:28.909Z,71.84
2023-02-03T11:56:03.387Z,71.76
2023-02-03T11:58:49.027Z,71.68
2023-02-03T12:01:38.604Z,71.59
2023-02-03T12:04:18.331Z,71.57
2023-02-03T12:07:08.664Z,71.74
2023-02-03T12:09:46.955Z,71.86
2023-02-03T12:12:51.533Z,71.80
2023-02-03T12:15:25.316Z,71.70
2023-02-03T12:18:07.831Z,71.74
2023-02-03T12:20:41.377Z,71.88
2023-02-03T12:23:24.010Z,71.88
2023-02-03T12:25:56.949Z,71.90
2023-02-03T12:28:49.146Z,71.87
2023-02-03T12:31:39.304Z,71.83
2023-02-03T12:34:15.828Z,71.84
2023-02-03T12:36:57.979Z,71.90
2023-02-03T12:39:39.413Z,71.86
2023-02-03T12:42:12.103Z,71.94
2023-02-03T12:45:03.769Z,72.00
2023-02-03T12:47:37.372Z,72.03
2023-02-03T12:50:19.659Z,71.90
2023-02-03T12:53:10.712Z,71.75
2023-02-03T12:55:39.711Z,71.85
2023-02-03T12:58:13.924Z,71.88
2023-02-03T13:00:50.420Z,71.98
2023-02-03T13:03:45.830Z,71.99
2023-02-03T13:06:27.957Z,72.00
2023-02-03T13:09:06.100Z,71.97
2023-02-03T13:12:27.845Z,71.99
2023-02-03T13:15:06.550Z,72.01
2023-02-03T13:17:46.491Z,71.94
2023-02-03T13:20:24.650Z,71.86
2023-02-03T13:22:53.286Z,71.91
2023-02-03T13:25:23.427Z,71.97
2023-02-03T13:28:01.185Z,71.90
2023-02-03T13:30:37.770Z,72.01
2023-02-03T13:33:53.371Z,71.97
2023-02-03T13:36:39.235Z,72.04
2023-02-03T13:39:18.755Z,72.05
2023-02-03T13:41:55.014Z,72.00
2023-02-03T13:44:28.642Z,72.29
2023-02-03T13:46:59.857Z,72.24
2023-02-03T13:49:33.588Z,72.04
2023-02-03T13:52:01.146Z,72.01
2023-02-03T13:54:36.138Z,71.98
2023-02-03T13:57:26.987Z,72.09
2023-02-03T13:59:54.072Z,72.18
2023-02-03T14:02:24.486Z,72.06
2023-02-03T14:04:55.317Z,72.20
2023-02-03T14:07:34.672Z,72.06
2023-02-03T14:10:24.295Z,72.11
2023-02-03T14:12:51.547Z,72.16
2023-02-03T14:15:26.650Z,72.19
2023-02-03T14:17:58.285Z,72.19
2023-02-03T14:20:25.577Z,72.18
2023-02-03T14:23:04.951Z,72.08
2023-02-03T14:25:38.995Z,72.01
2023-02-03T14:28:12.323Z,72.04
2023-02-03T14:31:06.726Z,72.19
2023-02-03T14:33:49.571Z,72.41
2023-02-03T14:36:40.117Z,72.29
2023-02-03T14:39:20.171Z,72.25
2023-02-03T14:42:00.839Z,72.21
2023-02-03T14:44:43.091Z,72.14
2023-02-03T14:47:56.697Z,72.13
2023-02-03T14:50:34.284Z,72.11
2023-02-03T14:53:20.244Z,72.20
2023-02-03T14:56:12.253Z,72.28
2023-02-03T14:58:55.691Z,72.16
2023-02-03T15:01:31.767Z,72.28
2023-02-03T15:04:14.255Z,72.26
2023-02-03T15:06:47.898Z,72.17
2023-02-03T15:09:28.868Z,72.09
2023-02-03T15:11:56.116Z,72.16
2023-02-03T15:14:26.847Z,72.26
2023-02-03T15:17:00.218Z,72.29
2023-02-03T15:19:33.671Z,72.21
2023-02-03T15:22:01.814Z,72.18
2023-02-03T15:24:36.185Z,72.06
2023-02-03T15:27:03.391Z,72.16
2023-02-03T15:29:36.308Z,72.27
2023-02-03T15:32:10.549Z,72.20
2023-02-03T15:34:47.852Z,72.28
2023-02-03T15:37:21.312Z,72.37
2023-02-03T15:39:58.668Z,72.20
2023-02-03T15:42:35.935Z,72.31
2023-02-03T15:45:20.037Z,72.14
2023-02-03T15:47:54.944Z,72.11
2023-02-03T15:50:34.302Z,72.26
2023-02-03T15:53:07.909Z,72.39
2023-02-03T15:55:48.523Z,72.31
2023-02-03T15:58:23.623Z,72.29
2023-02-03T16:00:53.802Z,72.07
2023-02-03T16:03:34.931Z,72.20
2023-02-03T16:06:39.964Z,72.27
2023-02-03T16:09:26.056Z,72.26
2023-02-03T16:12:06.034Z,72.25
2023-02-03T16:14:36.409Z,72.25
2023-02-03T16:17:06.228Z,72.17
2023-02-03T16:19:38.258Z,72.23
2023-02-03T16:22:31.981Z,72.38
2023-02-03T16:25:19.493Z,72.33
2023-02-03T16:28:16.347Z,72.37
2023-02-03T16:31:18.274Z,72.16
2023-02-03T16:34:07.096Z,72.12
2023-02-03T16:36:57.927Z,72.09
2023-02-03T16:39:45.537Z,72.02
2023-02-03T16:42:37.566Z,72.18
2023-02-03T16:45:33.989Z,72.23
2023-02-03T16:48:21.781Z,72.18
2023-02-03T16:50:58.263Z,72.16
2023-02-03T16:53:29.091Z,72.19
2023-02-03T16:55:58.439Z,72.24
2023-02-03T16:58:25.716Z,72.07
2023-02-03T17:00:54.566Z,71.96
2023-02-03T17:03:24.888Z,71.93
2023-02-03T17:05:52.370Z,72.12
2023-02-03T17:08:22.847Z,72.03
2023-02-03T17:10:50.599Z,72.07
2023-02-03T17:13:19.584Z,72.09
2023-02-03T17:15:50.055Z,72.13
2023-02-03T17:18:17.540Z,72.06
2023-02-03T17:20:46.079Z,72.17
2023-02-03T17:23:16.247Z,72.15
2023-02-03T17:25:49.411Z,72.08
2023-02-03T17:28:17.385Z,72.18
2023-02-03T17:30:44.871Z,72.04
2023-02-03T17:33:12.502Z,72.00
2023-02-03T17:35:45.346Z,72.13
2023-02-03T17:38:14.745Z,72.10
2023-02-03T17:54:35.278Z,72.07
2023-02-03T17:57:02.601Z,71.98
2023-02-03T17:59:29.825Z,71.98
2023-02-03T18:01:57.051Z,72.04
2023-02-03T18:04:24.478Z,72.15
2023-02-03T18:06:53.520Z,72.16
2023-02-03T18:09:20.874Z,72.08
2023-02-03T18:11:48.102Z,72.08
2023-02-03T18:14:16.589Z,72.15
2023-02-03T18:16:44.695Z,72.08
2023-02-03T18:19:15.422Z,71.99
2023-02-03T18:21:43.714Z,72.05
2023-02-03T18:24:13.331Z,72.03
2023-02-03T18:26:48.148Z,72.00
2023-02-03T18:29:15.465Z,72.05
2023-02-03T18:31:44.334Z,72.08
2023-02-03T18:34:11.984Z,72.20
2023-02-03T18:39:09.334Z,72.15
2023-02-03T18:41:38.686Z,72.13
2023-02-03T18:44:06.022Z,72.12
2023-02-03T18:46:34.301Z,72.03
2023-02-03T18:49:01.912Z,72.02
2023-02-03T18:51:29.319Z,72.18
2023-02-03T18:53:57.916Z,72.11
2023-02-03T18:56:27.873Z,72.11
2023-02-03T18:58:55.202Z,72.13
2023-02-03T19:01:28.589Z,72.14
2023-02-03T19:03:58.075Z,72.16
2023-02-03T19:06:27.014Z,72.08
2023-02-03T19:08:54.246Z,72.12
2023-02-03T19:11:21.528Z,72.22
2023-02-03T19:13:49.213Z,72.09
2023-02-03T19:16:17.890Z,72.04
2023-02-03T19:18:47.304Z,72.02
2023-02-03T19:21:15.063Z,72.05
2023-02-03T19:23:43.330Z,72.09
2023-02-03T19:26:12.241Z,71.98
2023-02-03T19:28:40.689Z,72.08
2023-02-03T19:31:11.505Z,72.06
2023-02-03T19:33:39.227Z,72.09
2023-02-03T19:36:09.739Z,72.03
2023-02-03T19:38:37.307Z,72.22
2023-02-03T19:41:04.726Z,72.14
2023-02-03T19:43:31.990Z,72.18
2023-02-03T19:45:59.754Z,71.91
2023-02-03T19:48:27.025Z,71.82
2023-02-03T19:50:54.280Z,71.88
2023-02-03T19:53:21.788Z,71.97
2023-02-03T19:55:49.051Z,71.96
2023-02-03T19:58:16.273Z,72.00
2023-02-03T20:00:44.651Z,71.97
2023-02-03T20:03:11.748Z,71.93
2023-02-03T20:05:38.903Z,71.98
2023-02-03T20:08:06.412Z,72.03
2023-02-03T20:10:33.657Z,71.98
2023-02-03T20:13:01.023Z,72.05
2023-02-03T20:15:28.318Z,71.93
2023-02-03T20:17:56.550Z,71.95
2023-02-03T20:20:24.359Z,71.89
2023-02-03T20:22:51.544Z,72.02
2023-02-03T20:25:19.325Z,71.93
2023-02-03T20:27:46.611Z,71.96
2023-02-03T20:30:14.196Z,71.85
2023-02-03T20:32:41.468Z,72.01
2023-02-03T20:35:08.900Z,72.09
2023-02-03T20:37:36.408Z,71.97
2023-02-03T20:40:10.138Z,72.06
2023-02-03T20:42:37.545Z,72.02
2023-02-03T20:45:13.722Z,71.95
2023-02-03T20:47:41.607Z,72.03
2023-02-03T20:50:18.560Z,72.02
2023-02-03T20:52:50.389Z,72.09
2023-02-03T20:55:19.998Z,72.04
2023-02-03T20:57:50.824Z,71.92
2023-02-03T21:00:24.498Z,71.96
2023-02-03T21:03:10.823Z,71.97
2023-02-03T21:05:42.658Z,72.02
2023-02-03T21:08:15.533Z,72.03
2023-02-03T21:10:44.129Z,71.92
2023-02-03T21:13:24.035Z,72.04
2023-02-03T21:15:56.048Z,72.06
2023-02-03T21:18:36.414Z,71.91
2023-02-03T21:21:04.328Z,72.09
2023-02-03T21:23:42.920Z,72.00
2023-02-03T21:26:21.747Z,72.00
2023-02-03T21:28:51.641Z,71.98
2023-02-03T21:31:30.938Z,72.04
2023-02-03T21:34:00.577Z,72.11
2023-02-03T21:36:34.253Z,72.04
2023-02-03T21:39:01.891Z,72.01
2023-02-03T21:41:33.956Z,71.95
2023-02-03T21:44:01.782Z,71.84
2023-02-03T21:46:33.049Z,72.00
2023-02-03T21:49:02.089Z,71.83
2023-02-03T21:51:39.104Z,71.91
2023-02-03T21:54:21.288Z,72.03
2023-02-03T21:56:48.557Z,71.89
2023-02-03T21:59:21.359Z,71.82
2023-02-03T22:01:49.436Z,71.98
2023-02-03T22:04:16.662Z,71.91
2023-02-03T22:06:45.117Z,71.95
2023-02-03T22:09:14.033Z,71.78
2023-02-03T22:11:41.502Z,71.84
2023-02-03T22:14:09.230Z,71.84
2023-02-03T22:16:36.676Z,71.89
2023-02-03T22:19:03.967Z,71.88
2023-02-03T22:21:31.167Z,71.87
2023-02-03T22:23:58.525Z,71.85
2023-02-03T22:26:25.750Z,71.84
2023-02-03T22:28:53.105Z,71.94
2023-02-03T22:31:20.905Z,71.85
2023-02-03T22:33:48.810Z,71.91
2023-02-03T22:36:16.044Z,71.88
2023-02-03T22:38:43.577Z,71.83
2023-02-03T22:41:13.026Z,71.88
2023-02-03T22:43:40.805Z,71.84
2023-02-03T22:46:08.545Z,71.82
2023-02-03T22:48:35.966Z,71.86
2023-02-03T22:51:03.322Z,71.95
2023-02-03T22:53:30.556Z,71.99
2023-02-03T22:55:57.903Z,71.94
2023-02-03T22:58:24.973Z,71.93
2023-02-03T23:00:52.282Z,71.87
2023-02-03T23:03:19.527Z,71.85
2023-02-03T23:05:46.856Z,71.84
2023-02-03T23:08:14.063Z,71.84
2023-02-03T23:10:41.394Z,71.91
2023-02-03T23:13:08.700Z,71.98
2023-02-03T23:15:36.068Z,72.04
2023-02-03T23:18:03.452Z,71.99
2023-02-03T23:20:30.883Z,71.90
2023-02-03T23:22:58.226Z,71.76
2023-02-03T23:25:25.453Z,71.79
2023-02-03T23:27:52.651Z,71.91
2023-02-03T23:30:19.970Z,71.93
2023-02-03T23:32:47.216Z,71.83
2023-02-03T23:35:32.847Z,71.86
2023-02-03T23:38:00.127Z,71.86
2023-02-03T23:40:27.265Z,71.84
2023-02-03T23:42:54.455Z,71.79
2023-02-03T23:45:21.657Z,71.99
2023-02-03T23:47:48.882Z,71.83
2023-02-03T23:50:17.129Z,71.86
2023-02-03T23:52:44.744Z,71.91
2023-02-03T23:55:15.201Z,71.85
2023-02-03T23:57:42.936Z,71.86
